Date,TemperatureHighF,TemperatureAvgF,TemperatureLowF,DewpointHighF,DewpointAvgF,DewpointLowF,HumidityHigh,HumidityAvg,HumidityLow,PressureMaxIn,PressureMinIn,WindSpeedMaxMPH,WindSpeedAvgMPH,GustSpeedMaxMPH,PrecipitationSumIn
2013-1-8,45.7,44.3,42.3,30.5,29.7,29.0,60,56,54,30.23,30.22,2,1,4,0.11
2013-1-9,51.3,46.6,39.9,39.4,37.4,31.3,79,70,56,30.17,30.13,6,5,16,0.08
2013-1-10,44.8,42.7,39.4,36.8,34.4,32.2,87,73,61,30.54,30.39,0,0,3,0.00
2013-1-11,49.5,49.5,49.5,45.5,45.5,45.5,86,86,86,29.95,29.95,1,1,4,0.00
2013-1-12,63.0,62.9,62.8,56.7,56.6,56.5,80,80,80,29.92,29.92,4,4,6,0.22
2013-1-13,51.6,49.6,48.6,47.6,45.3,44.3,86,85,85,29.85,29.79,2,0,3,0.11
2013-1-14,30.0,30.0,30.0,24.0,23.8,23.7,78,77,77,30.28,30.27,0,0,0,0.19
2013-1-15,32.2,30.9,29.7,25.8,24.3,22.7,77,76,75,30.32,30.12,0,0,3,0.03
2013-1-16,34.0,34.0,34.0,27.6,27.6,27.6,77,77,77,29.86,29.86,1,1,3,0.00
2013-1-18,35.4,35.1,34.9,22.2,22.0,21.8,59,58,58,30.07,30.07,8,8,23,0.00
2013-1-19,51.6,51.6,51.6,32.1,32.1,32.1,47,47,47,29.88,29.88,7,7,10,0.00
2013-1-20,26.1,25.6,25.0,14.6,14.3,14.1,63,62,60,30.09,30.08,4,2,10,0.00
2013-1-21,23.9,18.4,16.3,11.7,11.5,11.0,81,74,59,30.00,29.92,3,1,6,0.00
2013-1-22,11.7,10.6,10.2,4.5,4.2,3.5,77,75,69,30.22,30.20,1,1,4,0.00
2013-1-23,18.1,18.0,17.8,8.4,8.3,8.1,65,65,65,30.22,30.22,1,1,2,0.00
2013-1-29,61.5,57.6,42.1,54.6,51.5,37.0,82,80,78,29.95,29.67,6,3,16,0.14
2013-1-30,60.1,57.7,55.8,54.9,52.2,50.7,84,82,79,29.43,29.29,8,4,14,0.22
2013-1-31,27.5,27.5,27.5,19.0,19.0,19.0,70,70,70,29.67,29.67,5,5,0,0.00
2013-2-1,18.9,17.1,16.2,15.7,14.1,13.3,88,88,87,30.11,29.93,0,0,0,0.00
2013-2-2,25.3,24.6,23.9,21.8,20.6,19.5,86,84,83,29.96,29.93,2,1,4,0.00
2013-2-3,23.2,22.4,20.8,19.1,17.9,15.4,84,82,79,29.90,29.89,1,0,2,0.00
2013-2-4,21.7,21.7,21.7,17.4,17.4,17.4,83,83,83,29.99,29.99,0,0,0,0.00
2013-2-5,34.0,28.8,26.2,24.9,23.2,22.0,87,79,69,29.90,29.83,1,0,1,0.00
2013-2-6,31.1,28.2,27.1,21.5,20.1,19.4,73,71,69,30.21,30.21,0,0,2,0.00
2013-2-7,40.6,37.8,32.2,30.9,28.8,24.5,73,70,68,30.20,29.90,0,0,0,0.00
2013-2-8,34.0,31.9,30.0,30.8,28.3,25.8,88,86,84,30.01,29.83,4,4,6,0.19
2013-2-9,34.9,33.9,33.4,24.7,23.8,23.3,66,66,66,30.33,30.32,0,0,0,0.00
2013-2-11,50.4,42.9,37.9,46.0,32.9,27.6,85,67,64,29.84,29.68,10,7,19,0.00
2013-2-12,33.4,33.4,33.4,25.7,25.6,25.4,73,73,72,30.04,30.03,2,2,4,0.00
2013-2-13,36.5,34.0,29.7,29.0,26.7,23.7,79,74,71,29.81,29.75,1,0,3,0.00
2013-2-14,42.6,40.3,35.8,37.2,35.3,31.7,85,82,79,29.85,29.80,3,3,8,0.00
2013-2-15,34.9,33.8,32.5,29.3,28.2,23.5,82,80,69,30.02,29.95,1,0,3,0.00
2013-2-16,29.1,26.8,24.3,21.9,21.2,20.4,85,80,74,29.99,29.97,0,0,2,0.00
2013-2-17,25.7,24.2,20.3,12.6,11.8,10.5,65,58,56,30.16,30.10,1,1,3,0.00
2013-2-18,45.5,31.1,13.8,32.0,20.1,8.0,77,64,57,30.21,29.84,3,2,5,0.05
2013-2-19,45.5,33.2,23.4,39.8,28.2,15.4,87,82,71,29.87,29.57,8,5,16,0.16
2013-2-20,21.9,21.6,21.4,15.6,15.4,15.2,77,76,76,30.06,30.06,4,3,13,0.00
2013-2-22,40.5,35.0,32.2,36.6,30.4,27.3,86,83,82,29.96,29.95,2,2,10,0.00
2013-2-24,30.7,30.7,30.7,24.7,24.7,24.7,78,78,78,30.12,30.12,0,0,0,0.00
2013-2-25,45.5,43.7,40.1,31.5,31.1,30.7,71,61,56,30.19,30.13,1,1,4,0.00
2013-2-26,39.7,39.0,35.6,35.4,33.3,29.8,87,80,76,29.90,29.55,2,1,6,0.46
2013-2-27,45.0,42.9,37.6,40.1,38.4,33.8,86,84,83,29.64,29.58,6,3,15,0.22
2013-2-28,34.9,34.9,34.9,31.1,31.1,31.1,86,86,86,29.62,29.62,1,1,0,0.00
2013-3-1,31.3,30.8,29.7,26.1,25.8,25.4,84,82,81,30.02,29.98,2,1,5,0.00
2013-3-2,31.6,31.6,31.6,26.2,26.2,26.2,80,80,80,29.99,29.99,1,1,2,0.00
2013-3-4,28.6,28.5,28.2,24.7,24.6,24.3,85,85,85,30.10,30.09,0,0,0,0.00
2013-3-5,33.4,33.4,33.4,28.8,28.8,28.8,83,83,83,29.71,29.71,3,3,6,0.00
2013-3-6,37.0,37.0,37.0,32.4,32.4,32.4,83,83,83,29.97,29.97,2,2,2,0.00
2013-3-8,35.1,34.9,34.7,31.3,31.1,31.0,86,86,86,30.42,30.41,0,0,1,0.00
2013-3-9,54.5,54.5,54.5,37.7,37.7,37.7,53,53,53,30.20,30.20,2,2,4,0.00
2013-3-11,57.2,53.6,52.2,50.1,48.2,47.2,84,82,77,29.83,29.59,6,2,9,0.35
2013-3-12,39.0,37.6,36.9,33.4,33.2,32.8,86,84,80,29.89,29.88,2,1,6,0.00
2013-3-13,33.4,33.4,33.4,26.7,26.7,26.7,76,76,76,29.87,29.87,2,2,5,0.00
2013-3-16,35.4,35.3,35.2,31.7,31.6,31.5,86,86,86,29.67,29.67,0,0,0,0.05
2013-3-18,40.5,38.4,37.4,36.6,34.4,33.3,86,85,85,29.80,29.63,2,1,10,0.11
2013-3-20,32.7,31.2,29.7,21.5,21.2,20.8,69,66,62,29.90,29.87,3,2,5,0.00
2013-3-21,30.7,26.8,22.8,24.7,21.2,17.6,80,79,78,29.86,29.86,1,1,0,0.00
2013-3-22,39.7,35.3,30.9,26.2,24.7,23.0,72,65,58,29.95,29.94,2,1,4,0.00
2013-3-23,39.6,34.2,31.5,30.3,25.3,22.8,70,70,69,30.04,30.02,1,0,0,0.00
2013-3-24,35.6,35.6,35.6,27.5,27.5,27.5,72,72,72,29.80,29.80,2,2,0,0.00
2013-3-27,44.2,42.3,38.5,31.6,29.7,28.7,76,61,54,30.12,30.12,4,3,11,0.00
2013-3-28,37.8,37.8,37.8,29.9,29.9,29.9,73,73,73,30.22,30.22,2,2,2,0.00
2013-3-31,52.2,52.2,52.2,41.9,41.9,41.9,68,68,68,29.67,29.67,2,1,5,0.00
2013-4-1,40.8,40.8,40.8,17.2,17.2,17.2,38,38,38,29.99,29.99,3,3,4,0.00
2013-4-2,35.8,35.8,35.8,21.2,21.2,21.2,55,55,55,30.15,30.15,3,3,4,0.00
2013-4-3,37.6,37.3,37.0,22.5,22.2,22.0,54,54,54,30.33,30.33,3,3,3,0.00
2013-4-5,46.6,46.6,46.6,31.3,31.1,30.9,55,54,54,30.08,30.08,1,1,5,0.00
2013-4-6,51.3,51.3,51.3,23.2,23.2,22.7,33,33,33,30.17,30.17,3,3,4,0.00
2013-4-8,70.9,49.2,41.9,53.9,40.7,36.2,80,74,55,29.99,29.80,7,2,14,0.00
2013-4-9,63.9,58.2,47.5,51.5,49.4,42.3,82,73,65,30.08,29.94,2,1,4,0.00
2013-4-10,60.3,57.3,49.8,53.7,51.3,44.6,82,80,79,29.88,29.83,2,1,3,0.00
2013-4-11,42.3,42.2,42.1,37.5,37.4,37.3,83,83,83,29.85,29.85,0,0,0,0.00
2013-4-12,43.5,43.4,43.3,38.7,38.6,38.5,83,83,83,29.60,29.60,1,1,3,0.32
2013-4-14,57.4,57.2,57.0,42.3,42.1,41.9,57,57,57,30.00,30.00,2,2,2,0.00
2013-4-15,70.7,69.6,68.5,51.2,50.8,50.2,52,51,50,29.97,29.95,7,6,15,0.00
2013-4-16,60.6,60.6,60.6,54.4,54.4,54.4,80,80,80,29.99,29.99,0,0,0,0.00
2013-4-17,53.4,51.7,49.3,46.7,44.8,42.7,82,77,71,30.23,30.22,4,2,10,0.00
2013-4-18,85.6,74.7,62.6,64.5,62.9,57.4,83,67,45,29.87,29.63,11,6,21,0.00
2013-4-19,72.9,50.7,45.0,61.0,44.9,36.8,86,81,56,29.60,29.35,8,5,24,0.32
2013-4-20,40.5,40.5,40.5,28.1,28.1,28.1,61,61,61,30.04,30.04,3,3,9,0.00
2013-4-21,46.0,46.0,46.0,31.7,31.7,31.7,57,57,57,30.47,30.47,3,3,3,0.00
2013-4-22,50.2,49.7,49.1,38.2,36.6,35.6,65,61,57,30.30,30.14,2,1,10,0.00
2013-4-23,70.2,65.3,58.1,44.5,41.3,36.9,45,42,39,30.08,29.86,4,3,4,0.00
2013-4-24,59.2,52.1,41.4,54.7,47.8,37.5,86,85,85,30.05,29.71,4,2,8,0.65
2013-4-25,51.4,51.4,51.4,35.8,35.8,35.8,55,55,55,30.12,30.12,7,7,13,0.00
2013-4-26,54.9,50.2,45.5,35.6,33.6,31.6,58,53,48,30.39,30.32,0,0,3,0.00
2013-4-27,66.0,65.8,65.7,39.7,39.5,39.4,38,38,38,30.25,30.25,2,2,4,0.00
2013-4-28,59.9,58.5,57.0,55.1,53.5,51.9,84,84,83,30.04,29.95,2,2,5,0.14
2013-4-29,69.4,62.5,58.1,59.1,56.5,52.0,82,81,65,30.04,30.01,3,1,7,0.16
2013-4-30,69.3,68.5,67.5,60.0,57.0,54.3,76,68,59,30.14,30.11,2,1,4,0.00
2013-5-1,84.7,82.4,77.7,60.4,59.5,58.7,55,46,43,30.26,30.23,3,2,4,0.00
2013-5-2,74.3,71.2,66.9,51.6,48.7,45.5,46,45,44,30.32,30.18,3,2,5,0.00
2013-5-3,73.9,68.7,65.1,47.0,45.2,43.0,51,44,33,30.22,30.14,2,2,4,0.00
2013-5-4,66.4,66.0,65.8,39.5,39.4,39.3,38,38,37,30.19,30.19,2,2,2,0.00
2013-5-5,70.2,70.2,70.2,40.5,40.5,40.5,34,34,34,30.15,30.15,2,2,2,0.00
2013-5-6,66.0,65.8,65.7,47.9,47.3,47.0,52,51,51,30.13,30.13,2,1,2,0.00
2013-5-7,68.7,67.6,60.8,56.9,56.3,54.2,79,67,65,30.12,30.11,2,2,7,0.00